createdAt,value
2018-11-21T00:00:01.110Z,1006.56
2018-11-21T00:01:01.171Z,1006.66
2018-11-21T00:02:01.310Z,1006.63
2018-11-21T00:03:01.286Z,1006.69
2018-11-21T00:04:01.352Z,1006.68
2018-11-21T00:05:01.403Z,1006.69
2018-11-21T00:06:01.468Z,1006.65
2018-11-21T00:07:01.526Z,1006.63
2018-11-21T00:08:01.585Z,1006.64
2018-11-21T00:09:01.635Z,1006.67
2018-11-21T00:10:01.695Z,1006.75
2018-11-21T00:11:01.751Z,1006.75
2018-11-21T00:12:01.820Z,1006.76
2018-11-21T00:13:01.880Z,1006.80
2018-11-21T00:14:01.927Z,1006.79
2018-11-21T00:15:01.990Z,1006.76
2018-11-21T00:16:02.047Z,1006.79
2018-11-21T00:17:02.212Z,1006.83
2018-11-21T00:18:02.163Z,1006.87
2018-11-21T00:19:02.216Z,1006.86
2018-11-21T00:20:02.275Z,1006.82
2018-11-21T00:21:02.331Z,1006.87
2018-11-21T00:22:02.403Z,1006.89
2018-11-21T00:23:02.455Z,1006.83
2018-11-21T00:24:02.518Z,1006.87
2018-11-21T00:25:02.572Z,1006.82
2018-11-21T00:26:02.624Z,1006.85
2018-11-21T00:27:02.687Z,1006.85
2018-11-21T00:28:02.748Z,1006.81
2018-11-21T00:29:02.822Z,1006.76
2018-11-21T00:30:02.856Z,1006.78
2018-11-21T00:31:02.912Z,1006.77
2018-11-21T00:32:02.979Z,1006.77
2018-11-21T00:33:03.036Z,1006.78
2018-11-21T00:34:03.087Z,1006.77
2018-11-21T00:35:03.146Z,1006.78
2018-11-21T00:36:03.203Z,1006.77
2018-11-21T00:37:03.273Z,1006.84
2018-11-21T00:38:03.367Z,1006.83
2018-11-21T00:39:03.376Z,1006.79
2018-11-21T00:40:03.436Z,1006.85
2018-11-21T00:41:03.493Z,1006.82
2018-11-21T00:42:03.553Z,1006.85
2018-11-21T00:43:03.616Z,1006.84
2018-11-21T00:44:03.673Z,1006.84
2018-11-21T00:45:03.725Z,1006.84
2018-11-21T00:46:03.784Z,1006.86
2018-11-21T00:47:03.840Z,1006.89
2018-11-21T00:48:03.905Z,1006.91
2018-11-21T00:49:03.966Z,1006.95
2018-11-21T00:50:04.013Z,1007.01
2018-11-21T00:51:04.075Z,1006.94
2018-11-21T00:52:04.124Z,1006.96
2018-11-21T00:53:04.189Z,1007.00
2018-11-21T00:54:04.288Z,1006.96
2018-11-21T00:55:04.313Z,1006.97
2018-11-21T00:56:04.361Z,1006.95
2018-11-21T00:57:04.421Z,1006.93
2018-11-21T00:58:04.478Z,1006.97
2018-11-21T00:59:04.551Z,1007.02
2018-11-21T01:00:04.621Z,1007.06
2018-11-21T01:01:04.653Z,1007.05
2018-11-21T01:02:04.713Z,1007.05
2018-11-21T01:03:04.769Z,1007.13
2018-11-21T01:04:04.833Z,1007.11
2018-11-21T01:05:04.894Z,1007.16
2018-11-21T01:06:04.941Z,1007.17
2018-11-21T01:07:05.003Z,1007.12
2018-11-21T01:08:05.057Z,1007.13
2018-11-21T01:09:05.369Z,1007.14
2018-11-21T01:10:05.173Z,1007.10
2018-11-21T01:11:05.233Z,1007.12
2018-11-21T01:12:05.289Z,1007.16
2018-11-21T01:13:05.346Z,1007.17
2018-11-21T01:14:05.414Z,1007.17
2018-11-21T01:15:05.470Z,1007.20
2018-11-21T01:16:05.533Z,1007.15
2018-11-21T01:17:05.580Z,1007.20
2018-11-21T01:18:05.640Z,1007.20
2018-11-21T01:19:05.705Z,1007.23
2018-11-21T01:20:05.758Z,1007.31
2018-11-21T01:21:05.809Z,1007.38
2018-11-21T01:22:05.869Z,1007.37
2018-11-21T01:23:05.925Z,1007.43
2018-11-21T01:24:05.989Z,1007.49
2018-11-21T01:25:06.051Z,1007.45
2018-11-21T01:26:06.106Z,1007.48
2018-11-21T01:27:06.158Z,1007.46
2018-11-21T01:28:06.214Z,1007.41
2018-11-21T01:29:06.318Z,1007.39
2018-11-21T01:30:06.337Z,1007.31
2018-11-21T01:31:06.392Z,1007.33
2018-11-21T01:32:06.446Z,1007.25
2018-11-21T01:33:09.766Z,1007.23
2018-11-21T01:34:06.575Z,1007.24
2018-11-21T01:35:06.650Z,1007.22
2018-11-21T01:36:06.678Z,1007.30
2018-11-21T01:37:06.751Z,1007.37
2018-11-21T01:38:06.807Z,1007.42
2018-11-21T01:39:06.862Z,1007.44
2018-11-21T01:40:06.923Z,1007.46
2018-11-21T01:41:06.972Z,1007.50
2018-11-21T01:42:07.029Z,1007.49
2018-11-21T01:43:07.087Z,1007.47
2018-11-21T01:44:07.238Z,1007.50
2018-11-21T01:45:07.203Z,1007.54
2018-11-21T01:46:07.259Z,1007.56
2018-11-21T01:47:07.327Z,1007.59
2018-11-21T01:48:07.379Z,1007.58
2018-11-21T01:49:07.440Z,1007.63
2018-11-21T01:50:07.503Z,1007.63
2018-11-21T01:51:07.551Z,1007.63
2018-11-21T01:52:07.611Z,1007.66
2018-11-21T01:53:07.683Z,1007.66
2018-11-21T01:54:07.728Z,1007.66
2018-11-21T01:55:07.798Z,1007.65
2018-11-21T01:56:07.839Z,1007.66
2018-11-21T01:57:07.899Z,1007.67
2018-11-21T01:58:07.955Z,1007.72
2018-11-21T01:59:08.019Z,1007.78
2018-11-21T02:00:08.077Z,1007.79
2018-11-21T02:01:08.131Z,1007.78
2018-11-21T02:02:08.187Z,1007.74
2018-11-21T02:03:08.243Z,1007.69
2018-11-21T02:04:08.308Z,1007.65
2018-11-21T02:05:08.369Z,1007.54
2018-11-21T02:06:08.420Z,1007.62
2018-11-21T02:07:08.476Z,1007.62
2018-11-21T02:08:08.540Z,1007.69
2018-11-21T02:09:08.600Z,1007.74
2018-11-21T02:10:08.656Z,1007.75
2018-11-21T02:11:08.712Z,1007.75
2018-11-21T02:12:08.766Z,1007.76
2018-11-21T02:13:08.824Z,1007.79
2018-11-21T02:14:08.896Z,1007.81
2018-11-21T02:15:08.944Z,1007.83
2018-11-21T02:16:08.996Z,1007.83
2018-11-21T02:17:09.056Z,1007.85
2018-11-21T02:18:09.108Z,1007.85
2018-11-21T02:19:09.186Z,1007.80
2018-11-21T02:20:09.228Z,1007.80
2018-11-21T02:21:09.285Z,1007.78
2018-11-21T02:22:09.345Z,1007.84
2018-11-21T02:23:09.402Z,1007.86
2018-11-21T02:24:09.465Z,1007.84
2018-11-21T02:25:09.525Z,1007.83
2018-11-21T02:26:09.573Z,1007.87
2018-11-21T02:27:09.632Z,1007.89
2018-11-21T02:28:09.689Z,1007.88
2018-11-21T02:29:09.757Z,1007.89
2018-11-21T02:30:09.818Z,1007.87
2018-11-21T02:31:09.867Z,1007.89
2018-11-21T02:32:09.921Z,1007.90
2018-11-21T02:33:09.981Z,1007.88
2018-11-21T02:34:10.048Z,1007.92
2018-11-21T02:35:10.103Z,1007.97
2018-11-21T02:36:10.154Z,1008.01
2018-11-21T02:37:10.209Z,1007.99
2018-11-21T02:38:10.273Z,1007.96
2018-11-21T02:39:10.335Z,1007.95
2018-11-21T02:40:10.389Z,1008.00
2018-11-21T02:41:10.446Z,1007.99
2018-11-21T02:42:10.501Z,1008.03
2018-11-21T02:43:10.562Z,1008.03
2018-11-21T02:44:10.624Z,1008.03
2018-11-21T02:45:10.682Z,1008.04
2018-11-21T02:46:10.730Z,1008.05
2018-11-21T02:47:10.790Z,1008.04
2018-11-21T02:48:10.845Z,1008.06
2018-11-21T02:49:10.914Z,1008.05
2018-11-21T02:50:10.973Z,1008.05
2018-11-21T02:51:11.023Z,1008.12
2018-11-21T02:52:11.078Z,1008.19
2018-11-21T02:53:11.138Z,1008.23
2018-11-21T02:54:11.435Z,1008.19
2018-11-21T02:55:11.257Z,1008.18
2018-11-21T02:56:11.310Z,1008.16
2018-11-21T02:57:11.366Z,1008.13
2018-11-21T02:58:11.426Z,1008.18
2018-11-21T02:59:11.491Z,1008.23
2018-11-21T03:00:11.547Z,1008.22
2018-11-21T03:01:11.599Z,1008.23
2018-11-21T03:02:11.658Z,1008.23
2018-11-21T03:03:11.714Z,1008.26
2018-11-21T03:04:11.778Z,1008.32
2018-11-21T03:05:11.839Z,1008.37
2018-11-21T03:06:11.891Z,1008.40
2018-11-21T03:07:11.947Z,1008.36
2018-11-21T03:08:12.002Z,1008.43
2018-11-21T03:09:12.070Z,1008.42
2018-11-21T03:10:12.127Z,1008.46
2018-11-21T03:11:12.178Z,1008.42
2018-11-21T03:12:12.234Z,1008.45
2018-11-21T03:13:12.296Z,1008.44
2018-11-21T03:14:12.360Z,1008.44
2018-11-21T03:15:12.419Z,1008.38
2018-11-21T03:16:12.467Z,1008.44
2018-11-21T03:17:12.526Z,1008.45
2018-11-21T03:18:12.583Z,1008.43
2018-11-21T03:19:12.648Z,1008.44
2018-11-21T03:20:12.707Z,1008.40
2018-11-21T03:21:12.755Z,1008.40
2018-11-21T03:22:12.815Z,1008.40
2018-11-21T03:23:12.873Z,1008.37
2018-11-21T03:24:12.939Z,1008.38
2018-11-21T03:25:13.003Z,1008.38
2018-11-21T03:26:13.048Z,1008.38
2018-11-21T03:27:13.103Z,1008.48
2018-11-21T03:28:13.164Z,1008.50
2018-11-21T03:29:13.220Z,1008.45
2018-11-21T03:30:13.299Z,1008.50
2018-11-21T03:31:13.340Z,1008.51
2018-11-21T03:32:13.400Z,1008.53
2018-11-21T03:33:13.453Z,1008.50
2018-11-21T03:34:13.512Z,1008.58
2018-11-21T03:35:13.577Z,1008.64
2018-11-21T03:36:13.635Z,1008.68
2018-11-21T03:37:13.684Z,1008.73
2018-11-21T03:38:13.744Z,1008.77
2018-11-21T03:39:13.800Z,1008.75
2018-11-21T03:40:13.867Z,1008.79
2018-11-21T03:41:13.921Z,1008.79
2018-11-21T03:42:13.973Z,1008.82
2018-11-21T03:43:14.033Z,1008.88
2018-11-21T03:44:14.092Z,1008.91
2018-11-21T03:45:14.148Z,1008.95
2018-11-21T03:46:14.444Z,1009.00
2018-11-21T03:47:14.266Z,1009.03
2018-11-21T03:48:14.321Z,1008.99
2018-11-21T03:49:14.380Z,1008.92
2018-11-21T03:50:14.437Z,1008.88
2018-11-21T03:51:14.501Z,1008.84
2018-11-21T03:52:14.562Z,1008.85
2018-11-21T03:53:14.609Z,1008.81
2018-11-21T03:54:14.673Z,1008.80
2018-11-21T03:55:14.724Z,1008.80
2018-11-21T03:56:14.796Z,1008.75
2018-11-21T03:57:14.851Z,1008.72
2018-11-21T03:58:14.906Z,1008.75
2018-11-21T03:59:14.958Z,1008.82
2018-11-21T04:00:15.022Z,1008.82
2018-11-21T04:01:15.089Z,1008.84
2018-11-21T04:02:15.132Z,1008.85
2018-11-21T04:03:15.189Z,1008.82
2018-11-21T04:04:15.245Z,1008.85
2018-11-21T04:05:15.307Z,1008.86
2018-11-21T04:06:15.369Z,1008.81
2018-11-21T04:07:15.435Z,1008.84
2018-11-21T04:08:15.481Z,1008.91
2018-11-21T04:09:15.535Z,1008.96
2018-11-21T04:10:15.594Z,1008.96
2018-11-21T04:11:15.660Z,1008.96
2018-11-21T04:12:15.714Z,1008.91
2018-11-21T04:13:15.765Z,1008.88
2018-11-21T04:14:15.821Z,1008.76
2018-11-21T04:15:15.884Z,1008.71
2018-11-21T04:16:15.947Z,1008.65
2018-11-21T04:17:16.003Z,1008.70
2018-11-21T04:18:16.054Z,1008.70
2018-11-21T04:19:16.110Z,1008.73
2018-11-21T04:20:16.172Z,1008.74
2018-11-21T04:21:16.227Z,1008.88
2018-11-21T04:22:16.316Z,1008.87
2018-11-21T04:23:16.341Z,1008.88
2018-11-21T04:24:16.398Z,1008.99
2018-11-21T04:25:16.458Z,1009.03
2018-11-21T04:26:16.515Z,1009.04
2018-11-21T04:27:16.578Z,1009.06
2018-11-21T04:28:16.638Z,1009.13
2018-11-21T04:29:16.688Z,1009.12
2018-11-21T04:30:16.746Z,1009.11
2018-11-21T04:31:16.803Z,1009.17
2018-11-21T04:32:16.866Z,1009.24
2018-11-21T04:33:16.930Z,1009.30
2018-11-21T04:34:16.976Z,1009.33
2018-11-21T04:35:17.036Z,1009.36
2018-11-21T04:36:17.092Z,1009.35
2018-11-21T04:37:17.147Z,1009.35
2018-11-21T04:38:17.239Z,1009.37
2018-11-21T04:39:17.262Z,1009.36
2018-11-21T04:40:17.323Z,1009.39
2018-11-21T04:41:17.379Z,1009.42
2018-11-21T04:42:17.439Z,1009.40
2018-11-21T04:43:17.504Z,1009.37
2018-11-21T04:44:17.560Z,1009.42
2018-11-21T04:45:17.607Z,1009.38
2018-11-21T04:46:17.669Z,1009.41
2018-11-21T04:47:17.723Z,1009.38
2018-11-21T04:48:17.787Z,1009.38
2018-11-21T04:49:17.849Z,1009.38
2018-11-21T04:50:17.901Z,1009.41
2018-11-21T04:51:17.955Z,1009.43
2018-11-21T04:52:18.015Z,1009.45
2018-11-21T04:53:18.087Z,1009.41
2018-11-21T04:54:18.128Z,1009.42
2018-11-21T04:55:18.184Z,1009.40
2018-11-21T04:56:18.244Z,1009.39
2018-11-21T04:57:18.300Z,1009.36
2018-11-21T04:58:18.364Z,1009.40
2018-11-21T04:59:18.420Z,1009.50
2018-11-21T05:00:18.476Z,1009.54
2018-11-21T05:01:18.528Z,1009.59
2018-11-21T05:02:18.584Z,1009.61
2018-11-21T05:03:18.652Z,1009.53
2018-11-21T05:04:18.709Z,1009.53
2018-11-21T05:05:18.756Z,1009.53
2018-11-21T05:06:18.816Z,1009.54
2018-11-21T05:07:18.874Z,1009.58
2018-11-21T05:08:18.936Z,1009.63
2018-11-21T05:09:18.997Z,1009.69
2018-11-21T05:10:19.046Z,1009.74
2018-11-21T05:11:19.104Z,1009.74
2018-11-21T05:12:19.161Z,1009.78
2018-11-21T05:13:19.216Z,1009.82
2018-11-21T05:14:19.296Z,1009.81
2018-11-21T05:15:19.336Z,1009.81
2018-11-21T05:16:19.392Z,1009.83
2018-11-21T05:17:19.448Z,1009.82
2018-11-21T05:18:19.505Z,1009.83
2018-11-21T05:19:19.569Z,1009.82
2018-11-21T05:20:19.625Z,1009.84
2018-11-21T05:21:19.677Z,1009.83
2018-11-21T05:22:19.733Z,1009.82
2018-11-21T05:23:19.789Z,1009.84
2018-11-21T05:24:19.852Z,1009.82
2018-11-21T05:25:19.949Z,1009.81
2018-11-21T05:26:19.961Z,1009.87
2018-11-21T05:27:20.017Z,1009.85
2018-11-21T05:28:20.074Z,1009.85
2018-11-21T05:29:20.133Z,1009.86
2018-11-21T05:30:20.214Z,1009.88
2018-11-21T05:31:20.248Z,1009.87
2018-11-21T05:32:20.317Z,1009.92
2018-11-21T05:33:20.363Z,1009.89
2018-11-21T05:34:20.418Z,1009.90
2018-11-21T05:35:20.482Z,1009.93
2018-11-21T05:36:20.538Z,1009.92
2018-11-21T05:37:20.589Z,1009.89
2018-11-21T05:38:20.646Z,1009.93
2018-11-21T05:39:20.703Z,1009.95
2018-11-21T05:40:20.834Z,1010.01
2018-11-21T05:41:20.822Z,1010.00
2018-11-21T05:42:20.874Z,1010.00
2018-11-21T05:43:20.933Z,1009.99
2018-11-21T05:44:20.988Z,1009.94
2018-11-21T05:45:21.052Z,1009.92
2018-11-21T05:46:21.110Z,1009.91
2018-11-21T05:47:21.162Z,1009.92
2018-11-21T05:48:21.214Z,1009.94
2018-11-21T05:49:21.401Z,1009.95
2018-11-21T05:50:21.334Z,1010.02
2018-11-21T05:51:21.394Z,1010.05
2018-11-21T05:52:21.442Z,1010.09
2018-11-21T05:53:21.498Z,1010.08
2018-11-21T05:54:21.558Z,1010.07
2018-11-21T05:55:21.625Z,1010.13
2018-11-21T05:56:21.674Z,1010.10
2018-11-21T05:57:21.732Z,1010.14
2018-11-21T05:58:21.783Z,1010.15
2018-11-21T05:59:21.841Z,1010.19
2018-11-21T06:00:21.903Z,1010.24
2018-11-21T06:01:21.959Z,1010.24
2018-11-21T06:02:22.014Z,1010.27
2018-11-21T06:03:22.067Z,1010.27
2018-11-21T06:04:22.123Z,1010.26
2018-11-21T06:05:22.430Z,1010.29
2018-11-21T06:06:22.236Z,1010.36
2018-11-21T06:07:22.295Z,1010.32
2018-11-21T06:08:22.351Z,1010.37
2018-11-21T06:09:22.408Z,1010.39
2018-11-21T06:10:22.471Z,1010.37
2018-11-21T06:11:22.533Z,1010.38
2018-11-21T06:12:22.575Z,1010.37
2018-11-21T06:13:22.635Z,1010.40
2018-11-21T06:14:22.697Z,1010.35
2018-11-21T06:15:22.760Z,1010.34
2018-11-21T06:16:22.811Z,1010.36
2018-11-21T06:17:22.860Z,1010.36
2018-11-21T06:18:22.917Z,1010.42
2018-11-21T06:19:22.971Z,1010.41
2018-11-21T06:20:23.039Z,1010.43
2018-11-21T06:21:23.095Z,1010.46
2018-11-21T06:22:23.147Z,1010.45
2018-11-21T06:23:23.199Z,1010.42
2018-11-21T06:24:23.257Z,1010.44
2018-11-21T06:25:23.323Z,1010.44
2018-11-21T06:26:23.376Z,1010.47
2018-11-21T06:27:23.424Z,1010.46
2018-11-21T06:28:23.480Z,1010.44
2018-11-21T06:29:23.539Z,1010.40
2018-11-21T06:30:23.605Z,1010.38
2018-11-21T06:31:23.660Z,1010.42
2018-11-21T06:32:23.708Z,1010.42
2018-11-21T06:33:23.764Z,1010.46
2018-11-21T06:34:23.820Z,1010.46
2018-11-21T06:35:23.885Z,1010.48
2018-11-21T06:36:23.940Z,1010.47
2018-11-21T06:37:23.993Z,1010.48
2018-11-21T06:38:24.054Z,1010.51
2018-11-21T06:39:24.105Z,1010.50
2018-11-21T06:40:24.256Z,1010.60
2018-11-21T06:41:24.216Z,1010.64
2018-11-21T06:42:24.272Z,1010.66
2018-11-21T06:43:24.328Z,1010.69
2018-11-21T06:44:24.384Z,1010.73
2018-11-21T06:45:24.448Z,1010.81
2018-11-21T06:46:24.509Z,1010.77
2018-11-21T06:47:24.557Z,1010.76
2018-11-21T06:48:24.617Z,1010.79
2018-11-21T06:49:24.674Z,1010.83
2018-11-21T06:50:24.734Z,1010.82
2018-11-21T06:51:24.789Z,1010.82
2018-11-21T06:52:24.837Z,1010.80
2018-11-21T06:53:24.893Z,1010.82
2018-11-21T06:54:24.957Z,1010.82
2018-11-21T06:55:25.017Z,1010.78
2018-11-21T06:56:25.069Z,1010.80
2018-11-21T06:57:25.122Z,1010.76
2018-11-21T06:58:25.177Z,1010.79
2018-11-21T06:59:25.233Z,1010.79
2018-11-21T07:00:25.289Z,1010.79
2018-11-21T07:01:25.590Z,1010.82
2018-11-21T07:02:25.405Z,1010.81
2018-11-21T07:03:25.461Z,1010.83
2018-11-21T07:04:25.518Z,1010.83
2018-11-21T07:05:25.573Z,1010.88
2018-11-21T07:06:25.637Z,1010.89
2018-11-21T07:07:25.705Z,1010.89
2018-11-21T07:08:25.741Z,1010.93
2018-11-21T07:09:25.798Z,1010.96
2018-11-21T07:10:25.854Z,1011.03
2018-11-21T07:11:25.921Z,1011.02
2018-11-21T07:12:25.974Z,1010.99
2018-11-21T07:13:26.024Z,1011.02
2018-11-21T07:14:26.082Z,1011.01
2018-11-21T07:15:26.141Z,1011.04
2018-11-21T07:16:26.317Z,1011.00
2018-11-21T07:17:26.250Z,1011.03
2018-11-21T07:18:26.306Z,1011.00
2018-11-21T07:19:26.366Z,1011.03
2018-11-21T07:20:26.418Z,1011.06
2018-11-21T07:21:26.486Z,1011.08
2018-11-21T07:22:26.546Z,1011.14
2018-11-21T07:23:26.599Z,1011.19
2018-11-21T07:24:26.646Z,1011.21
2018-11-21T07:25:26.706Z,1011.23
2018-11-21T07:26:26.766Z,1011.27
2018-11-21T07:27:26.824Z,1011.26
2018-11-21T07:28:26.875Z,1011.29
2018-11-21T07:29:34.286Z,1011.30
2018-11-21T07:30:26.986Z,1011.29
2018-11-21T07:31:27.051Z,1011.28
2018-11-21T07:32:27.102Z,1011.31
2018-11-21T07:33:27.155Z,1011.31
2018-11-21T07:34:27.211Z,1011.35
2018-11-21T07:35:27.267Z,1011.32
2018-11-21T07:36:27.332Z,1011.36
2018-11-21T07:37:27.387Z,1011.34
2018-11-21T07:38:27.435Z,1011.34
2018-11-21T07:39:27.496Z,1011.41
2018-11-21T07:40:27.551Z,1011.40
2018-11-21T07:41:27.619Z,1011.40
2018-11-21T07:42:27.671Z,1011.44
2018-11-21T07:43:27.719Z,1011.44
2018-11-21T07:44:27.775Z,1011.45
2018-11-21T07:45:27.832Z,1011.46
2018-11-21T07:46:27.899Z,1011.43
2018-11-21T07:47:27.955Z,1011.48
2018-11-21T07:48:28.004Z,1011.48
2018-11-21T07:49:28.059Z,1011.51
2018-11-21T07:50:28.119Z,1011.57
2018-11-21T07:51:28.284Z,1011.57
2018-11-21T07:52:28.227Z,1011.64
2018-11-21T07:53:28.287Z,1011.53
2018-11-21T07:54:28.346Z,1011.54
2018-11-21T07:55:28.400Z,1011.55
2018-11-21T07:56:28.464Z,1011.59
2018-11-21T07:57:28.520Z,1011.62
2018-11-21T07:58:28.568Z,1011.69
2018-11-21T07:59:28.629Z,1011.73
2018-11-21T08:00:28.684Z,1011.74
2018-11-21T08:01:28.753Z,1011.75
2018-11-21T08:02:28.804Z,1011.75
2018-11-21T08:03:28.856Z,1011.80
2018-11-21T08:04:28.912Z,1011.77
2018-11-21T08:05:28.975Z,1011.77
2018-11-21T08:06:29.036Z,1011.74
2018-11-21T08:07:29.092Z,1011.76
2018-11-21T08:08:29.144Z,1011.78
2018-11-21T08:09:29.200Z,1011.84
2018-11-21T08:10:29.262Z,1011.84
2018-11-21T08:11:29.323Z,1011.83
2018-11-21T08:12:29.380Z,1011.84
2018-11-21T08:13:29.437Z,1011.83
2018-11-21T08:14:29.493Z,1011.86
2018-11-21T08:15:29.551Z,1011.86
2018-11-21T08:16:29.612Z,1011.86
2018-11-21T08:17:29.668Z,1011.84
2018-11-21T08:18:29.721Z,1011.83
2018-11-21T08:19:29.781Z,1011.86
2018-11-21T08:20:29.838Z,1011.86
2018-11-21T08:21:29.903Z,1011.85
2018-11-21T08:22:29.961Z,1011.88
2018-11-21T08:23:30.009Z,1011.92
2018-11-21T08:24:30.065Z,1011.94
2018-11-21T08:25:30.130Z,1011.98
2018-11-21T08:26:30.386Z,1011.96
2018-11-21T08:27:30.240Z,1012.00
2018-11-21T08:28:30.300Z,1012.00
2018-11-21T08:29:30.359Z,1012.00
2018-11-21T08:30:30.413Z,1012.03
2018-11-21T08:31:30.477Z,1012.20
2018-11-21T08:32:30.534Z,1012.18
2018-11-21T08:33:33.961Z,1012.23
2018-11-21T08:34:30.645Z,1012.19
2018-11-21T08:35:30.701Z,1012.22
2018-11-21T08:36:30.766Z,1012.27
2018-11-21T08:37:30.830Z,1012.24
2018-11-21T08:38:30.874Z,1012.12
2018-11-21T08:39:30.934Z,1012.17
2018-11-21T08:40:30.993Z,1012.25
2018-11-21T08:41:31.062Z,1012.24
2018-11-21T08:42:31.122Z,1012.25
2018-11-21T08:43:31.174Z,1012.18
2018-11-21T08:44:31.232Z,1012.11
2018-11-21T08:45:31.286Z,1012.26
2018-11-21T08:46:31.362Z,1012.30
2018-11-21T08:47:31.412Z,1012.38
2018-11-21T08:48:31.466Z,1012.44
2018-11-21T08:49:31.526Z,1012.42
2018-11-21T08:50:31.587Z,1012.46
2018-11-21T08:51:31.659Z,1012.43
2018-11-21T08:52:31.715Z,1012.51
2018-11-21T08:53:31.766Z,1012.52
2018-11-21T08:54:31.827Z,1012.51
2018-11-21T08:55:31.890Z,1012.51
2018-11-21T08:56:32.557Z,1012.55
2018-11-21T08:57:32.015Z,1012.57
2018-11-21T08:58:32.078Z,1012.52
2018-11-21T08:59:32.130Z,1012.45
2018-11-21T09:00:32.191Z,1012.49
2018-11-21T09:01:32.251Z,1012.45
2018-11-21T09:02:32.406Z,1012.44
2018-11-21T09:03:32.379Z,1012.43
2018-11-21T09:04:32.438Z,1012.43
2018-11-21T09:05:32.494Z,1012.49
2018-11-21T09:06:32.555Z,1012.48
2018-11-21T09:07:32.627Z,1012.52
2018-11-21T09:08:32.683Z,1012.53
2018-11-21T09:09:32.742Z,1012.49
2018-11-21T09:10:53.827Z,1012.51
2018-11-21T09:11:32.863Z,1012.48
2018-11-21T09:12:32.927Z,1012.52
2018-11-21T09:13:32.987Z,1012.55
2018-11-21T09:14:33.047Z,1012.60
2018-11-21T09:15:33.099Z,1012.63
2018-11-21T09:16:33.159Z,1012.62
2018-11-21T09:17:33.220Z,1012.71
2018-11-21T09:18:33.304Z,1012.74
2018-11-21T09:19:33.339Z,1012.74
2018-11-21T09:20:33.403Z,1012.74
2018-11-21T09:21:33.460Z,1012.70
2018-11-21T09:22:33.524Z,1012.79
2018-11-21T09:23:33.591Z,1012.80
2018-11-21T09:24:33.656Z,1012.74
2018-11-21T09:25:33.706Z,1012.79
2018-11-21T09:26:33.765Z,1012.78
2018-11-21T09:27:33.827Z,1012.75
2018-11-21T09:28:33.891Z,1012.75
2018-11-21T09:29:33.956Z,1012.71
2018-11-21T09:30:34.008Z,1012.81
2018-11-21T09:31:34.072Z,1012.81
2018-11-21T09:32:34.134Z,1012.80
2018-11-21T09:33:34.237Z,1012.80
2018-11-21T09:34:34.254Z,1012.86
2018-11-21T09:35:34.320Z,1012.90
2018-11-21T09:36:34.382Z,1012.90
2018-11-21T09:37:34.436Z,1013.01
2018-11-21T09:38:34.508Z,1013.07
2018-11-21T09:39:34.568Z,1013.07
2018-11-21T09:40:34.621Z,1013.16
2018-11-21T09:41:34.688Z,1013.07
2018-11-21T09:42:34.748Z,1013.01
2018-11-21T09:43:34.817Z,1012.98
2018-11-21T09:44:34.876Z,1013.00
2018-11-21T09:45:34.928Z,1012.96
2018-11-21T09:46:34.996Z,1012.96
2018-11-21T09:47:35.052Z,1013.00
2018-11-21T09:48:35.141Z,1013.04
2018-11-21T09:49:35.177Z,1013.04
2018-11-21T09:50:35.237Z,1013.09
2018-11-21T09:51:35.301Z,1013.10
2018-11-21T09:52:35.360Z,1013.11
2018-11-21T09:53:35.429Z,1013.14
2018-11-21T09:54:35.493Z,1013.21
2018-11-21T09:55:35.976Z,1013.23
2018-11-21T09:56:35.605Z,1013.25
2018-11-21T09:57:35.665Z,1013.25
2018-11-21T09:58:35.733Z,1013.28
2018-11-21T09:59:35.797Z,1013.24
2018-11-21T10:00:35.850Z,1013.25
2018-11-21T10:01:35.909Z,1013.25
2018-11-21T10:02:35.969Z,1013.20
2018-11-21T10:03:36.044Z,1013.21
2018-11-21T10:04:36.106Z,1013.20
2018-11-21T10:05:36.153Z,1013.16
2018-11-21T10:06:36.217Z,1013.23
2018-11-21T10:07:36.277Z,1013.30
2018-11-21T10:08:36.369Z,1013.35
2018-11-21T10:09:36.397Z,1013.37
2018-11-21T10:10:36.462Z,1013.37
2018-11-21T10:11:36.521Z,1013.37
2018-11-21T10:12:36.582Z,1013.33
2018-11-21T10:13:36.656Z,1013.33
2018-11-21T10:14:36.714Z,1013.37
2018-11-21T10:15:36.766Z,1013.37
2018-11-21T10:16:36.830Z,1013.38
2018-11-21T10:17:36.890Z,1013.34
2018-11-21T10:18:36.960Z,1013.33
2018-11-21T10:19:37.018Z,1013.26
2018-11-21T10:20:37.075Z,1013.21
2018-11-21T10:21:37.134Z,1013.23
2018-11-21T10:22:37.195Z,1013.22
2018-11-21T10:23:37.281Z,1013.19
2018-11-21T10:24:37.318Z,1013.21
2018-11-21T10:25:37.379Z,1013.13
2018-11-21T10:26:37.439Z,1013.12
2018-11-21T10:27:37.502Z,1013.07
2018-11-21T10:28:37.562Z,1013.08
2018-11-21T10:29:37.639Z,1013.10
2018-11-21T10:30:37.719Z,1013.15
2018-11-21T10:31:37.743Z,1013.20
2018-11-21T10:32:37.806Z,1013.23
2018-11-21T10:33:37.872Z,1013.26
2018-11-21T10:34:37.927Z,1013.25
2018-11-21T10:35:37.988Z,1013.23
2018-11-21T10:36:38.047Z,1013.19
2018-11-21T10:37:38.111Z,1013.16
2018-11-21T10:38:38.311Z,1013.16
2018-11-21T10:39:38.239Z,1013.16
2018-11-21T10:40:38.292Z,1013.16
2018-11-21T10:41:38.360Z,1013.15
2018-11-21T10:42:38.411Z,1013.12
2018-11-21T10:43:38.479Z,1013.12
2018-11-21T10:44:38.547Z,1013.16
2018-11-21T10:45:38.600Z,1013.19
2018-11-21T10:46:38.655Z,1013.22
2018-11-21T10:47:38.714Z,1013.21
2018-11-21T10:48:38.783Z,1013.25
2018-11-21T10:49:38.844Z,1013.21
2018-11-21T10:50:38.904Z,1013.24
2018-11-21T10:51:38.960Z,1013.22
2018-11-21T10:52:39.027Z,1013.20
2018-11-21T10:53:39.294Z,1013.15
2018-11-21T10:54:39.143Z,1013.15
2018-11-21T10:55:39.203Z,1013.17
2018-11-21T10:56:39.264Z,1013.15
2018-11-21T10:57:39.324Z,1013.20
2018-11-21T10:58:39.391Z,1013.25
2018-11-21T10:59:39.470Z,1013.21
2018-11-21T11:00:39.512Z,1013.20
2018-11-21T11:01:39.568Z,1013.24
2018-11-21T11:02:39.639Z,1013.21
2018-11-21T11:03:39.704Z,1013.18
2018-11-21T11:04:39.763Z,1013.20
2018-11-21T11:05:39.812Z,1013.25
2018-11-21T11:06:39.872Z,1013.27
2018-11-21T11:07:39.936Z,1013.25
2018-11-21T11:08:40.000Z,1013.21
2018-11-21T11:09:40.064Z,1013.24
2018-11-21T11:10:40.120Z,1013.23
2018-11-21T11:11:40.176Z,1013.27
2018-11-21T11:12:40.236Z,1013.26
2018-11-21T11:13:40.297Z,1013.27
2018-11-21T11:14:40.413Z,1013.34
2018-11-21T11:15:40.420Z,1013.37
2018-11-21T11:16:40.485Z,1013.39
2018-11-21T11:17:40.541Z,1013.34
2018-11-21T11:18:40.600Z,1013.39
2018-11-21T11:19:40.669Z,1013.40
2018-11-21T11:20:40.730Z,1013.35
2018-11-21T11:21:40.781Z,1013.34
2018-11-21T11:22:40.840Z,1013.32
2018-11-21T11:23:40.903Z,1013.33
2018-11-21T11:24:40.969Z,1013.31
2018-11-21T11:25:41.045Z,1013.29
2018-11-21T11:26:41.081Z,1013.26
2018-11-21T11:27:41.142Z,1013.28
2018-11-21T11:28:41.213Z,1013.26
2018-11-21T11:29:41.264Z,1013.30
2018-11-21T11:30:41.338Z,1013.29
2018-11-21T11:31:41.381Z,1013.29
2018-11-21T11:32:41.448Z,1013.27
2018-11-21T11:33:41.501Z,1013.27
2018-11-21T11:34:41.561Z,1013.34
2018-11-21T11:35:41.633Z,1013.31
2018-11-21T11:36:41.689Z,1013.30
2018-11-21T11:37:41.752Z,1013.33
2018-11-21T11:38:41.802Z,1013.33
2018-11-21T11:39:41.861Z,1013.32
2018-11-21T11:40:41.929Z,1013.35
2018-11-21T11:41:41.997Z,1013.36
2018-11-21T11:42:42.042Z,1013.41
2018-11-21T11:43:42.102Z,1013.41
2018-11-21T11:44:42.162Z,1013.36
2018-11-21T11:45:42.462Z,1013.40
2018-11-21T11:46:42.281Z,1013.33
2018-11-21T11:47:42.345Z,1013.33
2018-11-21T11:48:42.403Z,1013.34
2018-11-21T11:49:42.462Z,1013.38
2018-11-21T11:50:42.531Z,1013.37
2018-11-21T11:51:42.598Z,1013.33
2018-11-21T11:52:42.655Z,1013.35
2018-11-21T11:53:42.704Z,1013.37
2018-11-21T11:54:42.765Z,1013.42
2018-11-21T11:55:42.830Z,1013.41
2018-11-21T11:56:42.890Z,1013.43
2018-11-21T11:57:42.942Z,1013.40
2018-11-21T11:58:43.002Z,1013.38
2018-11-21T11:59:43.063Z,1013.42
2018-11-21T12:00:43.220Z,1013.47
2018-11-21T12:01:43.183Z,1013.44
2018-11-21T12:02:43.246Z,1013.44
2018-11-21T12:03:43.302Z,1013.41
2018-11-21T12:04:43.363Z,1013.38
2018-11-21T12:05:43.430Z,1013.39